»·PEaware :: PH-TIM KSNA-KSNA

PH-TIM :: KSNA-KSNA

FLIGHT INFORMATION

Flight Status: Arrived
Operator: Privately registered:
Netherlands
More flights under this callsign
Pilot: Tim P. (6337)
Aircraft: CESSNA 172 SKYHAWK
(C172)
More flights by this aircraft type
Origin: KSNA John Wayne-Orange Co
United States
Destination: KSNA John Wayne-Orange Co
United States
More flights between these airports :: More routes between these airports
Route: +SLI
File this flight plan on PilotEdge
Remarks:
Altitude:
(Current/Filed)
3,000ft
Speed:
(Current/Filed)
105kts
Departed: 27-Aug-18 10:21 AM
Arrived: 27-Aug-18 10:46 AM
Distance/Time
Traveled:
0nm/0:25
Distance/Time
To Go:
Arrived

Flight Plot

Page will automatically refresh every two minutes.


Map Options




Map Legend


Flown Route
Filed Route
Departure Airport
Arrival Airport
Navaid (VOR, NDB)
Fix

Horizontal Profiles

Position Reports

Time Latitude Longitude Heading Altitude Ground
Speed
27-Aug-18 09:19 33.667869 -117.870715 221 60ft 0kts
27-Aug-18 09:20 33.667869 -117.870715 221 60ft 0kts
27-Aug-18 09:21 33.667869 -117.870715 221 60ft 0kts
27-Aug-18 09:22 33.667869 -117.870715 221 60ft 0kts
27-Aug-18 09:23 33.667869 -117.870715 221 60ft 0kts
27-Aug-18 09:24 33.667869 -117.870715 221 60ft 0kts
27-Aug-18 09:25 33.667869 -117.870715 221 60ft 0kts
27-Aug-18 09:26 33.667869 -117.870715 221 60ft 0kts
27-Aug-18 09:27 33.667869 -117.870715 221 60ft 0kts
27-Aug-18 09:28 33.667869 -117.870715 221 60ft 0kts
27-Aug-18 09:29 33.667869 -117.870715 221 60ft 0kts
27-Aug-18 09:30 33.667869 -117.870715 221 60ft 0kts
27-Aug-18 09:31 33.667869 -117.870715 221 60ft 0kts
27-Aug-18 09:32 33.667869 -117.870715 221 60ft 0kts
27-Aug-18 09:33 33.667869 -117.870715 221 60ft 0kts
27-Aug-18 09:34 33.667869 -117.870715 221 60ft 0kts
27-Aug-18 09:35 33.667869 -117.870715 221 60ft 0kts
27-Aug-18 09:36 33.667869 -117.870715 221 60ft 0kts
27-Aug-18 09:37 33.667869 -117.870715 221 60ft 0kts
27-Aug-18 09:38 33.667869 -117.870715 221 60ft 0kts
27-Aug-18 09:39 33.667869 -117.870715 221 60ft 0kts
27-Aug-18 09:40 33.667869 -117.870715 221 60ft 0kts
27-Aug-18 09:41 33.667869 -117.870715 221 60ft 0kts
27-Aug-18 09:42 33.667869 -117.870715 221 60ft 0kts
27-Aug-18 09:43 33.667869 -117.870715 221 60ft 0kts
27-Aug-18 09:44 33.667869 -117.870715 221 60ft 0kts
27-Aug-18 09:45 33.667869 -117.870715 221 60ft 0kts
27-Aug-18 09:46 33.667869 -117.870715 221 60ft 0kts
27-Aug-18 09:47 33.667869 -117.870715 221 60ft 0kts
27-Aug-18 09:48 33.667869 -117.870715 221 60ft 0kts
27-Aug-18 09:49 33.667869 -117.870715 221 60ft 0kts
27-Aug-18 09:50 33.667869 -117.870715 221 60ft 0kts
27-Aug-18 09:51 33.667869 -117.870715 221 60ft 0kts
27-Aug-18 09:52 33.667869 -117.870715 221 60ft 0kts
27-Aug-18 09:53 33.667869 -117.870715 221 60ft 0kts
27-Aug-18 09:54 33.667869 -117.870715 221 60ft 0kts
27-Aug-18 09:55 33.667868 -117.870715 220 60ft 0kts
27-Aug-18 09:56 33.667868 -117.870715 221 60ft 0kts
27-Aug-18 09:57 33.667868 -117.870715 220 60ft 0kts
27-Aug-18 09:58 33.667868 -117.870715 221 60ft 0kts
27-Aug-18 09:59 33.667868 -117.870715 221 60ft 0kts
27-Aug-18 10:00 33.667868 -117.870715 221 60ft 0kts
27-Aug-18 10:01 33.667868 -117.870715 221 60ft 0kts
27-Aug-18 10:02 33.667868 -117.870715 221 60ft 0kts
27-Aug-18 10:03 33.667868 -117.870715 220 60ft 0kts
27-Aug-18 10:04 33.667868 -117.870715 220 60ft 0kts
27-Aug-18 10:05 33.668628 -117.871408 42 60ft 9kts
27-Aug-18 10:06 33.671765 -117.868352 28 60ft 15kts
27-Aug-18 10:07 33.673355 -117.867809 53 60ft 0kts
27-Aug-18 10:08 33.673355 -117.867809 54 60ft 0kts
27-Aug-18 10:09 33.673355 -117.867809 54 60ft 0kts
27-Aug-18 10:10 33.673355 -117.867809 53 60ft 0kts
27-Aug-18 10:11 33.673355 -117.867809 53 60ft 0kts
27-Aug-18 10:12 33.673355 -117.867809 54 60ft 0kts
27-Aug-18 10:13 33.673355 -117.867809 54 60ft 0kts
27-Aug-18 10:14 33.673355 -117.867809 53 60ft 0kts
27-Aug-18 10:15 33.673446 -117.867652 59 60ft 0kts
27-Aug-18 10:16 33.673509 -117.867538 53 60ft 7kts
27-Aug-18 10:17 33.676881 -117.865292 28 60ft 14kts
27-Aug-18 10:18 33.679951 -117.863641 249 60ft 0kts
27-Aug-18 10:19 33.679951 -117.863641 249 60ft 0kts
27-Aug-18 10:20 33.679951 -117.863641 249 60ft 0kts
27-Aug-18 10:21 33.679951 -117.863641 249 60ft 0kts
27-Aug-18 10:22 33.673212 -117.868601 209 166ft 82kts
27-Aug-18 10:23 33.654716 -117.885552 227 958ft 84kts
27-Aug-18 10:24 33.638264 -117.905969 226 1666ft 87kts
27-Aug-18 10:25 33.620629 -117.926375 224 2338ft 88kts
27-Aug-18 10:26 33.604076 -117.947161 227 2979ft 88kts
27-Aug-18 10:27 33.584918 -117.973724 259 3062ft 112kts
27-Aug-18 10:28 33.606437 -117.983467 15 3080ft 102kts
27-Aug-18 10:29 33.633668 -117.975637 15 3101ft 101kts
27-Aug-18 10:30 33.661056 -117.968650 12 3074ft 102kts
27-Aug-18 10:31 33.689046 -117.962530 11 3031ft 103kts
27-Aug-18 10:32 33.717557 -117.956499 10 2981ft 103kts
27-Aug-18 10:33 33.744619 -117.945038 23 2931ft 105kts
27-Aug-18 10:34 33.772069 -117.931997 20 2909ft 109kts
27-Aug-18 10:35 33.798334 -117.916173 48 2927ft 107kts
27-Aug-18 10:36 33.818578 -117.891337 45 2995ft 103kts
27-Aug-18 10:37 33.839059 -117.867070 50 3040ft 102kts
27-Aug-18 10:38 33.856349 -117.839776 50 3068ft 102kts
27-Aug-18 10:39 33.865601 -117.809591 89 3114ft 102kts
27-Aug-18 10:40 33.858999 -117.777363 144 3103ft 113kts
27-Aug-18 10:41 33.827307 -117.777692 180 3091ft 118kts
27-Aug-18 10:42 33.795188 -117.794196 204 2518ft 122kts
27-Aug-18 10:43 33.764774 -117.812828 205 1961ft 124kts
27-Aug-18 10:44 33.734360 -117.831954 207 1265ft 122kts
27-Aug-18 10:45 33.704975 -117.850668 204 609ft 109kts
27-Aug-18 10:46 33.685742 -117.862473 206 196ft 67kts
27-Aug-18 10:47 33.675923 -117.869741 292 60ft 0kts
27-Aug-18 10:48 33.675947 -117.869809 292 60ft 5kts
27-Aug-18 10:49 33.674590 -117.872047 204 60ft 0kts
27-Aug-18 10:50 33.674590 -117.872047 204 60ft 0kts
27-Aug-18 10:51 33.674590 -117.872047 204 60ft 0kts
27-Aug-18 10:52 33.674590 -117.872047 204 60ft 0kts
27-Aug-18 10:53 33.674590 -117.872047 204 60ft 0kts
27-Aug-18 10:54 33.674590 -117.872047 204 60ft 0kts
27-Aug-18 10:55 33.674590 -117.872047 204 60ft 0kts
27-Aug-18 10:56 33.674590 -117.872047 204 60ft 0kts
27-Aug-18 10:57 33.674590 -117.872047 204 60ft 0kts
27-Aug-18 10:58 33.674590 -117.872047 204 60ft 0kts
27-Aug-18 10:59 33.674590 -117.872047 204 60ft 0kts
27-Aug-18 11:00 33.674590 -117.872047 204 60ft 0kts
27-Aug-18 11:01 33.674590 -117.872047 204 60ft 0kts

Navigation Log

Ident Type
Flight plan parsing failed, navigation log unavailable